Time;durP1;ratioP1;P1;durP2;ratioP2;P2;SDS_P1;SDS_P2;PMS_P1;PMS_P2;Temp;Humidity;BMP_temperature;BMP_pressure;BME280_temperature;BME280_humidity;BME280_pressure;Samples;Min_cycle;Max_cycle;Signal;HPM_P1;HPM_P2
2023/05/15 00:10:12;;;;;;;35.83;26.10;;;13.00;99.90;;;;;;5072337;28;20086;-81
2023/05/15 00:54:50;;;;;;;38.40;27.58;;;12.80;99.90;;;;;;5072344;28;20170;-82
2023/05/15 01:08:45;;;;;;;37.47;27.25;;;13.50;99.90;;;;;;4984809;28;19965;-81
2023/05/15 01:11:14;;;;;;;37.30;26.63;;;13.80;99.90;;;;;;5002075;28;20606;-81
2023/05/15 01:13:41;;;;;;;38.85;26.70;;;12.20;99.90;;;;;;5046389;28;20045;-80
2023/05/15 01:16:58;;;;;;;37.65;27.33;;;12.80;99.90;;;;;;5044942;28;20029;-81
2023/05/15 01:39:29;;;;;;;35.88;25.33;;;12.60;99.90;;;;;;4923232;29;20548;-82
2023/05/15 01:53:09;;;;;;;39.67;28.25;;;12.50;99.90;;;;;;4854038;29;20087;-79
2023/05/15 02:03:38;;;;;;;38.38;27.23;;;12.50;99.90;;;;;;4988674;28;20413;-84
2023/05/15 02:15:13;;;;;;;40.58;26.77;;;12.40;99.90;;;;;;4908292;29;20525;-83
2023/05/15 03:25:18;;;;;;;33.03;24.15;;;12.00;99.90;;;;;;4996291;28;20041;-84
2023/05/15 04:12:57;;;;;;;35.53;24.35;;;11.60;99.90;;;;;;5086033;28;20037;-82
2023/05/15 04:43:44;;;;;;;26.17;20.38;;;11.70;99.90;;;;;;5088860;28;20059;-64
2023/05/15 04:46:10;;;;;;;30.13;22.15;;;11.60;99.90;;;;;;5085215;28;20036;-64
2023/05/15 04:48:35;;;;;;;32.30;19.90;;;11.60;99.90;;;;;;5089630;28;20040;-64
2023/05/15 04:51:01;;;;;;;29.63;21.33;;;11.60;99.90;;;;;;5086943;28;20035;-64
2023/05/15 04:53:27;;;;;;;30.23;21.33;;;11.60;99.90;;;;;;5084464;28;20032;-64
2023/05/15 04:55:52;;;;;;;28.67;20.25;;;11.60;99.90;;;;;;5090801;28;20048;-63
2023/05/15 04:58:18;;;;;;;32.78;20.90;;;11.70;99.90;;;;;;5090205;28;20065;-65
2023/05/15 05:00:43;;;;;;;27.45;20.55;;;11.70;99.90;;;;;;5088798;28;20029;-64
2023/05/15 05:03:10;;;;;;;27.45;19.52;;;11.70;99.90;;;;;;5086277;28;20043;-64
2023/05/15 05:05:35;;;;;;;32.00;21.33;;;11.70;99.90;;;;;;5087909;28;20098;-65
2023/05/15 05:08:01;;;;;;;27.08;20.30;;;11.70;99.90;;;;;;5091702;28;20032;-65
2023/05/15 05:10:27;;;;;;;27.83;20.30;;;11.70;99.90;;;;;;5090057;28;20040;-62
2023/05/15 05:12:52;;;;;;;31.10;21.58;;;11.70;99.90;;;;;;5084812;28;20498;-65
2023/05/15 05:15:18;;;;;;;27.63;20.88;;;11.70;99.90;;;;;;5087759;28;20040;-65
2023/05/15 05:17:45;;;;;;;29.88;20.65;;;11.80;99.90;;;;;;5078276;28;20040;-61
2023/05/15 05:20:11;;;;;;;30.92;21.65;;;11.80;99.90;;;;;;5074833;28;20127;-64
2023/05/15 05:22:38;;;;;;;27.80;20.15;;;11.90;99.90;;;;;;5068665;28;20709;-65
2023/05/15 05:25:05;;;;;;;30.95;21.33;;;11.90;99.90;;;;;;5087319;28;20102;-64
2023/05/15 05:27:30;;;;;;;28.15;20.50;;;11.90;99.90;;;;;;5078664;28;20486;-64
2023/05/15 05:29:56;;;;;;;30.70;20.77;;;12.00;99.90;;;;;;5076464;28;20051;-64
2023/05/15 05:32:22;;;;;;;26.80;19.83;;;11.90;99.90;;;;;;5080554;28;20040;-63
2023/05/15 05:34:47;;;;;;;25.73;19.85;;;11.90;99.90;;;;;;5087421;28;20032;-65
2023/05/15 05:37:13;;;;;;;24.73;19.25;;;11.90;99.90;;;;;;5087380;28;20128;-65
2023/05/15 05:39:38;;;;;;;26.38;19.33;;;11.90;99.90;;;;;;5083014;28;20044;-64
2023/05/15 05:42:04;;;;;;;26.05;19.33;;;12.00;99.90;;;;;;5091083;28;20460;-63
2023/05/15 05:44:30;;;;;;;27.05;19.52;;;12.00;99.90;;;;;;5090939;28;20126;-62
2023/05/15 05:46:55;;;;;;;23.77;19.15;;;12.00;99.90;;;;;;5066249;28;20040;-64
2023/05/15 05:49:21;;;;;;;27.35;18.38;;;12.10;99.90;;;;;;5084155;28;20493;-64
2023/05/15 05:51:46;;;;;;;25.75;19.15;;;12.00;99.90;;;;;;5089678;28;20130;-64
2023/05/15 05:54:13;;;;;;;26.92;18.63;;;12.00;99.90;;;;;;5090963;28;20047;-61
2023/05/15 05:56:43;;;;;;;24.58;18.20;;;12.10;99.90;;;;;;5076093;28;20048;-64
2023/05/15 05:59:09;;;;;;;24.65;18.48;;;12.10;99.90;;;;;;5083202;28;20032;-62
2023/05/15 06:01:35;;;;;;;23.25;17.75;;;12.10;99.90;;;;;;5079520;28;20043;-61
2023/05/15 06:04:00;;;;;;;23.40;18.35;;;12.20;99.90;;;;;;5084505;28;20502;-63
2023/05/15 06:06:26;;;;;;;24.23;18.65;;;12.20;99.90;;;;;;5089123;28;20326;-64
2023/05/15 06:08:51;;;;;;;25.35;19.27;;;12.20;99.90;;;;;;5077466;28;20032;-64
2023/05/15 06:11:17;;;;;;;26.80;18.50;;;12.20;99.90;;;;;;5082128;28;20115;-64
2023/05/15 06:13:43;;;;;;;24.85;18.63;;;12.20;99.90;;;;;;5081015;28;20048;-63
2023/05/15 06:16:08;;;;;;;24.63;18.30;;;12.10;99.90;;;;;;5084477;28;20039;-65
2023/05/15 06:18:34;;;;;;;23.67;17.65;;;12.10;99.90;;;;;;5084763;28;20070;-64
2023/05/15 06:20:59;;;;;;;25.00;18.52;;;12.10;99.90;;;;;;5082077;28;20477;-64
2023/05/15 06:23:26;;;;;;;25.10;17.88;;;12.00;99.90;;;;;;5078648;28;20119;-63
2023/05/15 06:25:51;;;;;;;26.45;19.15;;;12.00;99.90;;;;;;5078439;28;20040;-64
2023/05/15 06:28:17;;;;;;;24.05;17.90;;;12.00;99.90;;;;;;5076203;28;20036;-64
2023/05/15 06:30:42;;;;;;;25.13;18.83;;;12.00;99.90;;;;;;5078239;28;20203;-65
2023/05/15 06:33:08;;;;;;;27.13;19.27;;;12.00;99.90;;;;;;5077152;28;20487;-65
2023/05/15 06:35:34;;;;;;;27.58;19.60;;;12.00;99.90;;;;;;5084510;28;20040;-64
2023/05/15 06:38:00;;;;;;;26.95;18.55;;;12.00;99.90;;;;;;5087754;28;20113;-64
2023/05/15 06:40:26;;;;;;;25.40;17.63;;;12.10;99.90;;;;;;5090417;28;20379;-64
2023/05/15 06:42:51;;;;;;;26.65;17.98;;;12.00;99.90;;;;;;5087128;28;20040;-63
2023/05/15 06:45:17;;;;;;;26.10;18.92;;;12.00;99.90;;;;;;5084630;28;20045;-65
2023/05/15 06:47:43;;;;;;;23.98;17.77;;;12.00;99.90;;;;;;5075459;28;20037;-64
2023/05/15 06:50:09;;;;;;;23.75;17.67;;;12.00;99.90;;;;;;5090855;28;20504;-64
2023/05/15 06:52:34;;;;;;;24.92;17.95;;;12.10;99.90;;;;;;5093420;28;20032;-64
2023/05/15 06:55:00;;;;;;;24.63;17.90;;;12.10;99.90;;;;;;5082393;28;20093;-63
2023/05/15 06:57:26;;;;;;;24.65;18.48;;;12.10;99.90;;;;;;5087143;28;20570;-64
2023/05/15 06:59:51;;;;;;;24.25;18.38;;;12.10;99.90;;;;;;5080295;28;20041;-64
2023/05/15 07:02:17;;;;;;;26.45;18.35;;;12.10;99.90;;;;;;5085535;28;20119;-64
2023/05/15 07:04:42;;;;;;;25.45;17.73;;;12.20;99.90;;;;;;5085074;28;20064;-63
2023/05/15 07:07:08;;;;;;;23.17;18.05;;;12.20;99.90;;;;;;5075371;28;20048;-64
2023/05/15 07:09:34;;;;;;;23.70;17.38;;;12.20;99.90;;;;;;5083656;28;20067;-64
2023/05/15 07:12:00;;;;;;;26.42;17.63;;;12.20;99.90;;;;;;5088418;28;20040;-64
2023/05/15 07:14:25;;;;;;;22.73;17.52;;;12.30;99.90;;;;;;5085156;28;20071;-64
2023/05/15 07:16:51;;;;;;;21.52;16.55;;;12.30;99.90;;;;;;5080422;28;20040;-64
2023/05/15 07:19:20;;;;;;;22.23;17.20;;;12.30;99.90;;;;;;5086954;28;20129;-63
2023/05/15 07:21:46;;;;;;;23.17;17.50;;;12.30;99.90;;;;;;5076870;28;20482;-64
2023/05/15 07:24:11;;;;;;;20.88;16.45;;;12.40;99.90;;;;;;5082364;28;20097;-64
2023/05/15 07:26:37;;;;;;;20.80;17.05;;;12.40;99.90;;;;;;5079889;28;20045;-62
2023/05/15 07:29:02;;;;;;;22.92;16.35;;;12.40;99.90;;;;;;5084827;28;20059;-64
2023/05/15 07:31:30;;;;;;;24.40;17.23;;;12.40;99.90;;;;;;5090023;28;20032;-64
2023/05/15 07:33:55;;;;;;;23.90;17.10;;;12.50;99.90;;;;;;5089970;28;20478;-64
2023/05/15 07:36:21;;;;;;;23.42;17.42;;;12.50;99.90;;;;;;5087377;28;20043;-63
2023/05/15 07:38:47;;;;;;;22.50;16.25;;;12.60;99.90;;;;;;5086306;28;20039;-64
2023/05/15 07:41:12;;;;;;;22.20;15.60;;;12.60;99.90;;;;;;5082818;28;20039;-64
2023/05/15 07:43:38;;;;;;;22.15;16.95;;;12.60;99.90;;;;;;5084250;28;20548;-64
2023/05/15 07:46:03;;;;;;;21.73;15.80;;;12.70;99.90;;;;;;5091034;28;20080;-62
2023/05/15 07:48:29;;;;;;;19.65;15.43;;;12.80;99.90;;;;;;5082846;28;20041;-64
2023/05/15 07:50:55;;;;;;;22.88;16.25;;;12.80;99.90;;;;;;5085398;28;20036;-64
2023/05/15 07:53:21;;;;;;;19.40;15.23;;;12.80;99.90;;;;;;5078465;28;20083;-64
2023/05/15 07:55:47;;;;;;;19.52;15.02;;;12.80;99.90;;;;;;5082739;28;20068;-64
2023/05/15 07:58:13;;;;;;;20.25;15.05;;;12.90;99.90;;;;;;5091994;28;20592;-64
2023/05/15 08:00:38;;;;;;;21.23;16.80;;;13.00;99.90;;;;;;5080277;28;20075;-64
2023/05/15 08:03:04;;;;;;;20.65;16.10;;;13.00;99.90;;;;;;5085083;28;20047;-64
2023/05/15 08:05:30;;;;;;;21.23;15.82;;;13.10;99.90;;;;;;5080203;28;20043;-64
2023/05/15 08:07:55;;;;;;;20.95;16.40;;;13.20;99.90;;;;;;5086975;28;20114;-64
2023/05/15 08:10:21;;;;;;;24.95;16.70;;;13.20;99.90;;;;;;5076226;28;20534;-64
2023/05/15 08:12:47;;;;;;;25.55;17.10;;;13.30;99.90;;;;;;5085425;28;20078;-64
2023/05/15 08:15:13;;;;;;;21.55;16.48;;;13.40;99.90;;;;;;5080596;28;20118;-65
2023/05/15 08:17:40;;;;;;;20.45;15.05;;;13.60;99.90;;;;;;5082918;28;20045;-64
2023/05/15 08:20:06;;;;;;;22.50;15.35;;;13.70;99.90;;;;;;5085872;28;20055;-64
2023/05/15 08:22:32;;;;;;;23.58;16.27;;;13.90;99.90;;;;;;5086466;28;20158;-64
2023/05/15 08:24:59;;;;;;;20.38;15.45;;;14.10;99.90;;;;;;5079047;28;20119;-64
2023/05/15 08:27:25;;;;;;;21.55;16.20;;;14.30;99.90;;;;;;5081965;28;20440;-64
2023/05/15 08:29:51;;;;;;;18.38;14.55;;;14.50;99.90;;;;;;5085645;28;20159;-64
2023/05/15 08:32:17;;;;;;;22.42;16.55;;;14.80;99.90;;;;;;5078750;28;20074;-64
2023/05/15 08:34:43;;;;;;;20.85;16.02;;;15.00;99.90;;;;;;5073932;28;20106;-64
2023/05/15 08:37:09;;;;;;;19.00;14.98;;;15.20;99.90;;;;;;5082436;28;20533;-64
2023/05/15 08:39:34;;;;;;;19.70;15.27;;;15.40;99.90;;;;;;5071126;28;20098;-64
2023/05/15 08:42:22;;;;;;;18.98;15.63;;;15.70;99.90;;;;;;5072684;28;20090;-64
2023/05/15 08:44:48;;;;;;;21.15;16.42;;;16.20;99.90;;;;;;5072987;28;20512;-65
2023/05/15 08:47:14;;;;;;;20.98;17.38;;;16.40;99.90;;;;;;5073059;28;20423;-64
2023/05/15 08:49:55;;;;;;;19.95;16.77;;;16.50;99.90;;;;;;5072250;28;20059;-64
2023/05/15 08:52:22;;;;;;;17.70;15.80;;;16.60;99.90;;;;;;5072551;28;20047;-65
2023/05/15 08:54:49;;;;;;;17.83;14.40;;;16.70;99.90;;;;;;5062630;28;20043;-64
2023/05/15 08:57:16;;;;;;;17.13;14.35;;;16.70;99.90;;;;;;5068908;28;20049;-63
2023/05/15 08:59:42;;;;;;;17.23;13.75;;;16.90;99.90;;;;;;5083297;28;20443;-63
2023/05/15 09:02:08;;;;;;;20.80;14.52;;;17.10;99.90;;;;;;5078644;28;20046;-63
2023/05/15 09:04:33;;;;;;;18.13;12.85;;;17.30;99.90;;;;;;5084702;28;20036;-64
2023/05/15 09:07:02;;;;;;;18.80;12.82;;;17.50;99.90;;;;;;5073797;28;20517;-65
2023/05/15 09:09:31;;;;;;;15.98;12.27;;;17.70;99.90;;;;;;5086910;28;20506;-63
2023/05/15 09:11:58;;;;;;;17.63;12.93;;;17.80;99.90;;;;;;5085300;28;20036;-65
2023/05/15 09:14:23;;;;;;;16.02;12.68;;;18.00;99.90;;;;;;5085663;28;20040;-65
2023/05/15 09:16:52;;;;;;;21.92;14.82;;;18.20;99.90;;;;;;5087051;28;20051;-65
2023/05/15 09:19:18;;;;;;;16.70;13.45;;;18.30;99.90;;;;;;5079444;28;20094;-65
2023/05/15 09:21:44;;;;;;;18.27;14.73;;;18.50;99.90;;;;;;5082068;28;20040;-65
2023/05/15 09:24:21;;;;;;;15.23;13.18;;;18.60;99.90;;;;;;5081196;28;20047;-65
2023/05/15 09:27:01;;;;;;;16.75;12.93;;;18.60;99.90;;;;;;5082387;28;20044;-64
2023/05/15 09:29:28;;;;;;;15.05;11.80;;;18.80;99.90;;;;;;5080818;28;20039;-65
2023/05/15 09:31:55;;;;;;;17.15;12.25;;;18.90;99.90;;;;;;5089231;28;20119;-65
2023/05/15 09:34:33;;;;;;;16.45;12.25;;;19.10;99.90;;;;;;5082841;28;20028;-65
2023/05/15 09:37:01;;;;;;;17.23;12.65;;;19.30;99.90;;;;;;5077205;28;20044;-65
2023/05/15 09:39:26;;;;;;;14.32;12.38;;;19.30;99.90;;;;;;5079724;28;20036;-65
2023/05/15 09:41:55;;;;;;;16.27;12.63;;;19.30;99.90;;;;;;5091029;28;20114;-65
2023/05/15 09:44:24;;;;;;;17.20;13.02;;;19.40;99.90;;;;;;5084502;28;20119;-65
2023/05/15 09:46:51;;;;;;;14.68;12.30;;;19.50;99.90;;;;;;5086781;28;20451;-65
2023/05/15 09:49:17;;;;;;;15.52;12.25;;;19.60;99.90;;;;;;5089632;28;20097;-65
2023/05/15 09:51:43;;;;;;;16.85;12.35;;;19.70;99.90;;;;;;5090589;28;20036;-64
2023/05/15 09:54:17;;;;;;;12.93;11.40;;;19.80;99.90;;;;;;5092324;22;20036;-63
2023/05/15 09:56:46;;;;;;;13.75;12.23;;;19.90;99.90;;;;;;5031190;28;20038;-63
2023/05/15 09:59:14;;;;;;;18.13;12.98;;;20.10;99.90;;;;;;5030358;28;20099;-63
2023/05/15 10:01:43;;;;;;;17.55;13.20;;;19.90;99.90;;;;;;5030431;28;20041;-63
2023/05/15 10:04:10;;;;;;;14.23;11.90;;;20.00;99.90;;;;;;5013099;28;20045;-63
2023/05/15 10:06:40;;;;;;;13.32;11.88;;;20.00;99.90;;;;;;5012478;28;20124;-63
2023/05/15 10:09:06;;;;;;;15.43;11.65;;;20.30;99.90;;;;;;5006899;28;20480;-63
2023/05/15 10:11:35;;;;;;;14.35;12.85;;;20.50;99.90;;;;;;5029502;28;20064;-63
2023/05/15 10:14:02;;;;;;;15.55;12.85;;;20.70;99.90;;;;;;5011705;28;20034;-63
2023/05/15 10:16:29;;;;;;;16.95;12.60;;;20.80;99.90;;;;;;5030436;28;20034;-63
2023/05/15 10:18:56;;;;;;;14.95;11.73;;;20.90;99.90;;;;;;5005070;28;20124;-63
2023/05/15 10:21:22;;;;;;;14.43;11.32;;;20.90;99.90;;;;;;5030482;28;20044;-63
2023/05/15 10:23:49;;;;;;;15.48;13.18;;;21.00;99.90;;;;;;5012347;28;20057;-63
2023/05/15 10:26:22;;;;;;;14.85;12.23;;;21.00;99.90;;;;;;5028939;28;20033;-64
2023/05/15 10:28:49;;;;;;;16.88;13.02;;;20.80;99.90;;;;;;5013402;28;20103;-64
2023/05/15 10:31:16;;;;;;;18.00;14.95;;;20.80;99.90;;;;;;5012889;28;20044;-64
2023/05/15 10:33:43;;;;;;;18.00;14.82;;;20.70;99.90;;;;;;5012434;28;20041;-64
2023/05/15 10:36:09;;;;;;;18.17;15.68;;;20.90;99.90;;;;;;5012207;28;20046;-62
2023/05/15 10:38:36;;;;;;;17.73;15.05;;;20.90;99.90;;;;;;5012451;28;20088;-62
2023/05/15 10:41:04;;;;;;;19.38;15.88;;;21.10;99.90;;;;;;5029666;28;20033;-63
2023/05/15 10:43:30;;;;;;;16.88;14.93;;;20.90;99.90;;;;;;5012411;28;20052;-63
2023/05/15 10:45:57;;;;;;;17.75;15.07;;;20.90;99.90;;;;;;5029681;28;20037;-63
2023/05/15 10:48:23;;;;;;;16.92;15.05;;;20.90;99.90;;;;;;5005515;28;20048;-62
2023/05/15 10:50:52;;;;;;;20.73;14.95;;;20.90;99.90;;;;;;5029746;28;20495;-63
2023/05/15 10:53:19;;;;;;;16.65;14.70;;;21.10;99.90;;;;;;4995555;28;20060;-63
2023/05/15 10:55:48;;;;;;;16.63;14.93;;;21.20;99.90;;;;;;5028656;28;20080;-62
2023/05/15 10:58:13;;;;;;;17.63;13.90;;;21.30;99.90;;;;;;5029839;28;20041;-63
2023/05/15 11:00:42;;;;;;;16.23;14.55;;;21.30;99.90;;;;;;5029859;28;20071;-63
2023/05/15 11:03:11;;;;;;;16.58;14.57;;;21.30;99.90;;;;;;5012171;28;20380;-63
2023/05/15 11:06:07;;;;;;;16.35;14.00;;;21.50;99.90;;;;;;5029390;28;20116;-63
2023/05/15 11:08:32;;;;;;;16.75;13.52;;;21.60;99.90;;;;;;5029997;28;20045;-63
2023/05/15 11:10:58;;;;;;;19.33;14.98;;;21.70;99.90;;;;;;5028608;28;20388;-62
2023/05/15 11:13:24;;;;;;;16.20;14.65;;;21.70;99.90;;;;;;5011978;28;20087;-63
2023/05/15 11:15:50;;;;;;;16.60;13.90;;;21.80;99.80;;;;;;5033027;28;20060;-62
2023/05/15 11:18:15;;;;;;;15.93;14.10;;;21.80;99.90;;;;;;5006104;28;20504;-62
2023/05/15 11:21:01;;;;;;;16.20;13.00;;;21.70;99.70;;;;;;5000082;28;20033;-62
2023/05/15 11:23:27;;;;;;;17.80;13.27;;;21.50;99.70;;;;;;5011196;28;20578;-62
2023/05/15 11:25:55;;;;;;;16.15;12.63;;;21.40;99.70;;;;;;5010780;28;20132;-62
2023/05/15 11:28:22;;;;;;;14.60;13.15;;;21.50;99.80;;;;;;5032126;28;20044;-62
2023/05/15 11:30:50;;;;;;;15.07;13.32;;;21.60;99.80;;;;;;5033061;28;20040;-62
2023/05/15 11:33:19;;;;;;;15.15;13.65;;;21.80;99.60;;;;;;5021057;28;20080;-62
2023/05/15 11:35:46;;;;;;;13.70;12.23;;;21.80;99.40;;;;;;5021854;28;20038;-62
2023/05/15 11:38:18;;;;;;;13.48;11.80;;;22.00;99.60;;;;;;5014345;28;20046;-63
2023/05/15 11:40:46;;;;;;;15.82;12.77;;;22.10;99.20;;;;;;5032700;28;20037;-64
2023/05/15 11:43:19;;;;;;;13.57;12.18;;;22.20;99.10;;;;;;5014760;28;20049;-64
2023/05/15 11:45:47;;;;;;;16.30;12.82;;;22.30;98.70;;;;;;5008719;28;20045;-62
2023/05/15 11:48:15;;;;;;;12.82;11.38;;;22.40;98.70;;;;;;5029643;28;20084;-62
2023/05/15 11:50:41;;;;;;;11.18;10.07;;;22.40;98.60;;;;;;5032995;28;20041;-62
2023/05/15 11:53:08;;;;;;;13.30;10.95;;;22.40;98.60;;;;;;5025459;28;20224;-62
2023/05/15 11:55:38;;;;;;;12.35;10.48;;;22.50;98.30;;;;;;5022739;28;20116;-62
2023/05/15 11:58:04;;;;;;;11.80;10.00;;;22.60;97.90;;;;;;5029375;28;20172;-62
2023/05/15 12:00:30;;;;;;;12.25;9.27;;;22.60;97.90;;;;;;5029182;28;20486;-62
2023/05/15 12:02:56;;;;;;;12.55;9.07;;;22.70;97.60;;;;;;5007247;28;20118;-62
2023/05/15 12:05:22;;;;;;;12.52;9.32;;;22.70;97.30;;;;;;5003097;28;20395;-63
2023/05/15 12:07:49;;;;;;;12.15;9.00;;;22.80;97.20;;;;;;5008827;28;20084;-62
2023/05/15 12:10:14;;;;;;;10.32;8.60;;;23.00;97.10;;;;;;4988160;28;20048;-62
2023/05/15 12:12:42;;;;;;;11.70;7.70;;;23.00;97.00;;;;;;5023216;28;20399;-62
2023/05/15 12:15:12;;;;;;;10.00;8.18;;;23.00;97.30;;;;;;5006343;28;20057;-62
2023/05/15 12:17:43;;;;;;;9.15;8.27;;;23.00;97.50;;;;;;5011360;28;20124;-62
2023/05/15 12:20:16;;;;;;;9.35;8.30;;;23.10;97.10;;;;;;5032317;28;20407;-62
2023/05/15 12:22:41;;;;;;;8.75;7.85;;;23.00;96.60;;;;;;5029768;28;20033;-62
2023/05/15 12:25:10;;;;;;;12.52;8.50;;;23.00;96.40;;;;;;5014262;28;20116;-62
2023/05/15 12:27:37;;;;;;;10.80;7.90;;;22.90;96.20;;;;;;5024532;28;20491;-62
2023/05/15 12:30:04;;;;;;;9.30;8.32;;;22.80;96.00;;;;;;5027501;28;20037;-62
2023/05/15 12:32:32;;;;;;;12.88;8.45;;;22.80;96.00;;;;;;5028918;28;20333;-62
2023/05/15 12:34:58;;;;;;;7.25;6.55;;;22.70;96.70;;;;;;5013394;28;20033;-62
2023/05/15 12:37:24;;;;;;;9.45;7.43;;;22.90;96.60;;;;;;5031503;28;20472;-62
2023/05/15 12:39:53;;;;;;;10.50;8.73;;;23.00;96.30;;;;;;5012565;28;20087;-62
2023/05/15 12:42:19;;;;;;;11.45;8.32;;;23.10;96.10;;;;;;5031989;28;20419;-62
2023/05/15 12:44:44;;;;;;;9.57;8.60;;;23.10;96.00;;;;;;5013487;28;20054;-62
2023/05/15 12:47:14;;;;;;;9.57;7.85;;;23.10;95.70;;;;;;5011136;28;20037;-62
2023/05/15 12:49:41;;;;;;;8.00;7.20;;;23.10;95.70;;;;;;5031385;28;20491;-62
2023/05/15 12:52:08;;;;;;;8.90;7.10;;;23.10;95.80;;;;;;5022860;28;20045;-61
2023/05/15 12:54:39;;;;;;;9.38;7.10;;;23.30;95.10;;;;;;5023133;28;20100;-62
2023/05/15 12:57:06;;;;;;;9.93;6.78;;;23.10;94.00;;;;;;5004979;28;20052;-62
2023/05/15 12:59:32;;;;;;;6.85;5.47;;;23.10;94.30;;;;;;5012393;28;20080;-62
2023/05/15 13:01:57;;;;;;;6.85;5.10;;;23.10;93.80;;;;;;5012360;28;20069;-62
2023/05/15 13:04:23;;;;;;;6.50;5.10;;;23.20;93.70;;;;;;5011711;28;20078;-62
2023/05/15 13:06:49;;;;;;;5.63;4.53;;;23.20;93.40;;;;;;5029901;28;20121;-61
2023/05/15 13:09:21;;;;;;;9.13;5.43;;;23.20;92.80;;;;;;5014704;28;20103;-61
2023/05/15 13:11:47;;;;;;;6.57;5.88;;;23.10;92.20;;;;;;5029629;28;20056;-62
2023/05/15 13:14:16;;;;;;;8.60;5.68;;;23.10;92.70;;;;;;5023887;28;20065;-61
2023/05/15 13:16:45;;;;;;;9.07;7.07;;;23.00;92.90;;;;;;5027928;28;20037;-62
2023/05/15 13:19:11;;;;;;;9.52;7.28;;;23.00;93.10;;;;;;5029772;28;20391;-62
2023/05/15 13:21:37;;;;;;;9.05;6.80;;;22.90;93.20;;;;;;5030508;28;20036;-62
2023/05/15 13:24:03;;;;;;;8.30;6.35;;;22.80;93.40;;;;;;5012997;28;20033;-63
2023/05/15 13:26:28;;;;;;;7.68;5.47;;;22.70;93.60;;;;;;5030236;28;20041;-63
2023/05/15 13:28:54;;;;;;;7.05;5.85;;;22.50;93.60;;;;;;5027031;28;20043;-63
2023/05/15 13:31:20;;;;;;;7.57;5.65;;;22.30;93.70;;;;;;5030159;28;20068;-63
2023/05/15 13:33:45;;;;;;;7.97;6.45;;;22.20;93.80;;;;;;5012858;28;20033;-63
2023/05/15 13:36:11;;;;;;;9.43;8.07;;;22.20;94.20;;;;;;5012533;28;20049;-63
2023/05/15 13:38:37;;;;;;;10.73;7.78;;;22.20;94.10;;;;;;5012793;28;20084;-63
2023/05/15 13:41:05;;;;;;;8.80;7.90;;;22.00;94.40;;;;;;5030778;28;20033;-63
2023/05/15 13:43:31;;;;;;;11.15;8.55;;;21.80;94.50;;;;;;5028582;28;20045;-63
2023/05/15 13:45:56;;;;;;;9.93;7.50;;;21.70;94.50;;;;;;5011504;28;20045;-63
2023/05/15 13:48:22;;;;;;;9.57;7.97;;;21.50;94.40;;;;;;5023180;28;20065;-63
2023/05/15 13:50:48;;;;;;;9.23;8.23;;;21.40;94.50;;;;;;4994600;28;20095;-63
2023/05/15 13:53:15;;;;;;;8.63;7.72;;;21.30;94.90;;;;;;4996383;28;20076;-63
2023/05/15 13:55:44;;;;;;;9.50;8.05;;;21.20;95.10;;;;;;5004986;28;20395;-63
2023/05/15 13:58:14;;;;;;;9.43;7.93;;;21.00;95.50;;;;;;5026355;28;20034;-63
2023/05/15 14:00:42;;;;;;;9.20;7.97;;;20.90;96.00;;;;;;5020583;28;20487;-63
2023/05/15 14:03:07;;;;;;;11.23;8.60;;;20.90;96.40;;;;;;5008301;28;20056;-63
2023/05/15 14:05:33;;;;;;;12.32;8.82;;;20.70;96.90;;;;;;5029148;28;20041;-63
2023/05/15 14:07:59;;;;;;;10.38;7.97;;;20.60;97.30;;;;;;5009181;28;20036;-63
2023/05/15 14:10:25;;;;;;;11.30;8.82;;;20.40;97.70;;;;;;5010466;28;20037;-63
2023/05/15 14:12:51;;;;;;;12.02;9.07;;;20.30;98.00;;;;;;5028634;28;20080;-63
2023/05/15 14:15:17;;;;;;;10.82;9.02;;;20.20;98.10;;;;;;5010906;28;20127;-63
2023/05/15 14:17:43;;;;;;;9.75;8.55;;;20.00;98.20;;;;;;5004132;28;20157;-63
2023/05/15 14:20:10;;;;;;;10.70;8.30;;;19.90;98.40;;;;;;5008951;28;20096;-63
2023/05/15 14:22:36;;;;;;;11.45;8.23;;;19.80;98.70;;;;;;5012554;28;20059;-63
2023/05/15 14:25:03;;;;;;;10.23;8.30;;;19.70;99.00;;;;;;5023450;28;20042;-63
2023/05/15 14:27:29;;;;;;;10.18;8.07;;;19.70;99.00;;;;;;5007188;28;20041;-64
2023/05/15 14:29:57;;;;;;;8.57;7.43;;;19.60;98.90;;;;;;5011897;28;20094;-64
2023/05/15 14:32:23;;;;;;;8.98;6.72;;;19.50;98.50;;;;;;5027820;28;20045;-63
2023/05/15 14:34:49;;;;;;;8.32;6.60;;;19.40;98.50;;;;;;5023979;28;20044;-63
2023/05/15 14:37:15;;;;;;;8.60;6.72;;;19.40;98.50;;;;;;5019897;28;20442;-64
2023/05/15 14:39:41;;;;;;;8.50;6.30;;;19.30;98.50;;;;;;5027475;28;20135;-63
2023/05/15 14:42:07;;;;;;;10.15;6.88;;;19.30;98.70;;;;;;5011383;28;20041;-63
2023/05/15 14:44:33;;;;;;;9.75;7.50;;;19.30;98.90;;;;;;5027700;28;20033;-63
2023/05/15 14:47:11;;;;;;;8.88;7.63;;;19.30;99.10;;;;;;5029209;28;20487;-64
2023/05/15 14:49:37;;;;;;;10.05;8.05;;;19.10;99.50;;;;;;5010250;28;20085;-64
2023/05/15 14:52:04;;;;;;;11.05;8.02;;;19.10;99.50;;;;;;5027608;28;20061;-64
2023/05/15 14:54:30;;;;;;;9.15;8.25;;;19.10;99.80;;;;;;5024485;28;20061;-64
2023/05/15 14:56:57;;;;;;;8.75;7.85;;;19.00;99.90;;;;;;5027834;28;20399;-64
2023/05/15 14:59:23;;;;;;;9.43;7.75;;;18.90;99.90;;;;;;5011718;28;20400;-64
2023/05/15 15:01:48;;;;;;;11.10;9.45;;;18.90;99.90;;;;;;5028125;28;20064;-64
2023/05/15 15:04:14;;;;;;;12.77;9.25;;;18.80;99.90;;;;;;5010112;28;20320;-63
2023/05/15 15:06:40;;;;;;;11.13;9.40;;;18.80;99.90;;;;;;5031255;28;20454;-63
2023/05/15 15:09:06;;;;;;;11.27;9.02;;;18.70;99.90;;;;;;5030913;28;20041;-63
2023/05/15 15:11:32;;;;;;;12.63;9.55;;;18.80;99.90;;;;;;5012463;28;20083;-63
2023/05/15 15:13:57;;;;;;;10.43;8.50;;;18.80;99.90;;;;;;5031451;28;20377;-64
2023/05/15 15:16:23;;;;;;;9.93;7.80;;;18.70;99.90;;;;;;5032833;28;20037;-63
2023/05/15 15:18:48;;;;;;;9.60;8.27;;;18.70;99.90;;;;;;5032116;28;20030;-63
2023/05/15 15:21:15;;;;;;;11.48;8.70;;;18.70;99.90;;;;;;5012866;28;20048;-63
2023/05/15 15:23:40;;;;;;;11.90;9.55;;;18.60;99.90;;;;;;5011696;28;20052;-63
2023/05/15 15:26:06;;;;;;;11.82;10.35;;;18.60;99.90;;;;;;5029604;28;20033;-63
2023/05/15 15:28:32;;;;;;;11.77;9.50;;;18.60;99.90;;;;;;5029254;28;20045;-63
2023/05/15 15:31:01;;;;;;;11.35;9.07;;;18.60;99.90;;;;;;5032681;28;20506;-63
2023/05/15 15:33:27;;;;;;;11.38;10.00;;;18.50;99.90;;;;;;5032978;28;20041;-63
2023/05/15 15:35:53;;;;;;;13.73;10.70;;;18.50;99.90;;;;;;5031644;28;20049;-63
2023/05/15 15:38:18;;;;;;;12.35;10.80;;;18.40;99.90;;;;;;5010494;28;20072;-64
2023/05/15 15:40:44;;;;;;;12.00;10.45;;;18.40;99.90;;;;;;5028442;28;20051;-63
2023/05/15 15:43:11;;;;;;;12.48;11.05;;;18.40;99.90;;;;;;5032021;28;20132;-63
2023/05/15 15:45:36;;;;;;;14.23;12.13;;;18.40;99.90;;;;;;5011863;28;20137;-63
2023/05/15 15:48:03;;;;;;;13.25;10.63;;;18.40;99.90;;;;;;5032373;28;20033;-63
2023/05/15 15:50:28;;;;;;;13.38;10.98;;;18.40;99.90;;;;;;5031930;28;20048;-63
2023/05/15 15:52:54;;;;;;;13.82;11.07;;;18.50;99.90;;;;;;5031488;28;20122;-63
2023/05/15 15:55:22;;;;;;;13.90;11.27;;;18.50;99.90;;;;;;5026003;23;20042;-81
2023/05/15 15:58:05;;;;;;;14.05;11.77;;;18.60;99.90;;;;;;5015076;28;20038;-80
2023/05/15 16:00:36;;;;;;;16.77;12.38;;;18.70;99.90;;;;;;4997513;28;20046;-80
2023/05/15 16:03:11;;;;;;;16.33;12.50;;;19.10;99.90;;;;;;4978809;28;20412;-80
2023/05/15 16:05:50;;;;;;;16.33;12.65;;;18.60;99.90;;;;;;4980593;28;20421;-80
2023/05/15 16:08:19;;;;;;;17.50;12.95;;;18.50;99.90;;;;;;4997154;28;20093;-80
2023/05/15 16:10:47;;;;;;;18.77;13.95;;;18.40;99.90;;;;;;4964759;28;20458;-81
2023/05/15 16:13:14;;;;;;;18.52;13.80;;;18.20;99.90;;;;;;4963438;28;20041;-80
2023/05/15 16:15:41;;;;;;;17.90;14.10;;;18.10;99.90;;;;;;4981616;28;20069;-78
2023/05/15 16:18:07;;;;;;;17.83;13.63;;;17.90;99.90;;;;;;4983276;28;20037;-80
2023/05/15 16:20:38;;;;;;;17.13;14.00;;;17.80;99.90;;;;;;4998414;28;20038;-78
2023/05/15 16:23:04;;;;;;;19.38;14.65;;;17.60;99.90;;;;;;4985396;28;20448;-80
2023/05/15 16:25:31;;;;;;;16.52;13.77;;;17.50;99.90;;;;;;4996301;28;20042;-80
2023/05/15 16:27:57;;;;;;;18.85;14.45;;;17.40;99.90;;;;;;5003989;28;20512;-79
2023/05/15 16:30:23;;;;;;;17.60;14.20;;;17.50;99.90;;;;;;4971996;28;20030;-81
2023/05/15 16:32:50;;;;;;;16.02;13.93;;;17.20;99.90;;;;;;4987104;28;20072;-80
2023/05/15 16:35:15;;;;;;;19.52;15.95;;;17.20;99.90;;;;;;4997452;28;20490;-80
2023/05/15 16:37:41;;;;;;;16.70;13.43;;;17.60;99.90;;;;;;4975903;28;20049;-79
2023/05/15 16:40:07;;;;;;;15.32;12.07;;;17.00;99.90;;;;;;4980039;28;20034;-80
2023/05/15 16:42:36;;;;;;;15.50;12.35;;;17.00;99.90;;;;;;4997340;28;20042;-81